Time;durP1;ratioP1;P1;durP2;ratioP2;P2;SDS_P1;SDS_P2;PMS_P1;PMS_P2;Temp;Humidity;BMP_temperature;BMP_pressure;BME280_temperature;BME280_humidity;BME280_pressure;Samples;Min_cycle;Max_cycle;Signal;HPM_P1;HPM_P2
2021/07/07 01:45:51;;;;;;;4.65;1.30;;;15.20;99.90;;;;;;4961363;29;20057;-79
2021/07/07 01:48:17;;;;;;;6.30;1.60;;;15.40;99.90;;;;;;4960384;29;20090;-78
2021/07/07 01:50:43;;;;;;;6.82;1.48;;;15.50;99.90;;;;;;4986657;28;20400;-78
2021/07/07 01:53:10;;;;;;;3.58;1.10;;;15.20;99.90;;;;;;4959372;29;20038;-79
2021/07/07 01:55:36;;;;;;;4.03;1.25;;;15.30;99.90;;;;;;4959997;29;20404;-78
2021/07/07 01:58:02;;;;;;;4.93;1.25;;;15.30;99.90;;;;;;4959910;29;20023;-79
2021/07/07 02:00:31;;;;;;;6.25;1.25;;;15.50;99.90;;;;;;4959117;28;20038;-78
2021/07/07 02:02:58;;;;;;;1.60;0.98;;;15.50;99.90;;;;;;4960312;29;20030;-78
2021/07/07 02:05:28;;;;;;;2.88;1.30;;;15.40;99.90;;;;;;4972100;28;20027;-78
2021/07/07 02:07:55;;;;;;;3.47;1.30;;;15.50;99.90;;;;;;4960037;29;20736;-77
2021/07/07 02:10:21;;;;;;;4.28;1.40;;;15.10;99.90;;;;;;4960397;29;20028;-77
2021/07/07 02:12:48;;;;;;;3.75;1.52;;;15.40;99.90;;;;;;4960894;29;20042;-78
2021/07/07 02:15:23;;;;;;;11.75;1.83;;;15.40;99.90;;;;;;4960437;28;20050;-78
2021/07/07 02:17:50;;;;;;;3.08;1.50;;;15.10;99.90;;;;;;4991208;28;20122;-77
2021/07/07 02:20:16;;;;;;;4.82;1.20;;;15.00;99.90;;;;;;4960088;29;20047;-78
2021/07/07 02:22:43;;;;;;;4.38;1.60;;;15.00;99.90;;;;;;4956788;29;20038;-80
2021/07/07 02:25:12;;;;;;;6.55;1.52;;;15.00;99.90;;;;;;4957575;28;20059;-77
2021/07/07 02:27:38;;;;;;;4.03;1.60;;;15.10;99.90;;;;;;4961485;29;20396;-77
2021/07/07 02:30:11;;;;;;;1.85;1.38;;;15.20;99.90;;;;;;4961225;29;20174;-77
2021/07/07 02:32:37;;;;;;;2.13;1.60;;;15.00;99.90;;;;;;4965146;29;20043;-77
2021/07/07 02:35:06;;;;;;;26.50;3.42;;;15.20;99.90;;;;;;4959805;28;20111;-77
2021/07/07 02:37:32;;;;;;;12.65;1.90;;;14.80;99.90;;;;;;4961087;29;20078;-78
2021/07/07 02:39:57;;;;;;;3.97;1.40;;;15.00;99.90;;;;;;4959580;29;20023;-77
2021/07/07 02:42:23;;;;;;;3.08;1.50;;;15.20;99.90;;;;;;4959588;29;20059;-77
2021/07/07 02:44:49;;;;;;;3.00;1.38;;;14.90;99.90;;;;;;4961762;28;20042;-77
2021/07/07 02:47:14;;;;;;;7.03;1.50;;;16.80;99.90;;;;;;4962356;29;20023;-77
2021/07/07 02:49:40;;;;;;;2.85;1.50;;;15.10;99.90;;;;;;4961061;29;20058;-77
2021/07/07 02:52:06;;;;;;;4.75;1.38;;;15.00;99.90;;;;;;4963914;29;20066;-77
2021/07/07 02:54:31;;;;;;;3.33;1.70;;;14.90;99.90;;;;;;4959145;28;20046;-77
2021/07/07 02:56:57;;;;;;;3.22;1.80;;;15.40;99.90;;;;;;4949870;29;20023;-77
2021/07/07 02:59:23;;;;;;;3.42;1.40;;;15.60;99.90;;;;;;4963028;29;20043;-77
2021/07/07 03:01:48;;;;;;;2.70;1.58;;;15.20;99.90;;;;;;4967928;29;20534;-77
2021/07/07 03:04:14;;;;;;;3.40;1.42;;;15.00;99.90;;;;;;4996564;28;20031;-78
2021/07/07 03:06:40;;;;;;;4.50;1.60;;;15.90;99.90;;;;;;4992137;28;20020;-77
2021/07/07 03:09:05;;;;;;;4.97;1.48;;;15.20;99.90;;;;;;4965743;29;20024;-78
2021/07/07 03:11:31;;;;;;;3.65;1.50;;;15.10;99.90;;;;;;4979952;28;20027;-78
2021/07/07 03:13:57;;;;;;;5.93;1.55;;;16.00;99.90;;;;;;4984062;28;20035;-78
2021/07/07 03:16:24;;;;;;;6.65;1.60;;;15.10;99.90;;;;;;4965227;29;20027;-78
2021/07/07 03:18:49;;;;;;;5.85;1.38;;;14.90;99.90;;;;;;4962068;29;20035;-78
2021/07/07 03:21:15;;;;;;;4.97;1.73;;;15.20;99.90;;;;;;4963440;29;20380;-78
2021/07/07 03:23:41;;;;;;;8.15;1.95;;;14.90;99.90;;;;;;4977341;28;20507;-78
2021/07/07 03:26:06;;;;;;;4.68;1.50;;;16.20;99.90;;;;;;4964097;29;20114;-78
2021/07/07 03:28:32;;;;;;;4.22;1.85;;;15.30;99.90;;;;;;4960423;29;20038;-77
2021/07/07 03:30:57;;;;;;;3.15;1.80;;;15.10;99.90;;;;;;4958378;29;20046;-77
2021/07/07 03:33:24;;;;;;;2.83;1.63;;;14.80;99.90;;;;;;4959166;28;20117;-78
2021/07/07 03:35:49;;;;;;;2.38;1.60;;;15.00;99.90;;;;;;4958608;29;20055;-77
2021/07/07 03:38:15;;;;;;;5.05;1.60;;;14.80;99.90;;;;;;4990240;28;20039;-78
2021/07/07 03:40:41;;;;;;;5.50;1.83;;;15.70;99.90;;;;;;4991616;28;20035;-78
2021/07/07 03:43:07;;;;;;;6.03;2.00;;;15.10;99.90;;;;;;4991480;28;20062;-78
2021/07/07 03:45:33;;;;;;;5.70;1.50;;;15.40;99.90;;;;;;4961043;29;20134;-78
2021/07/07 03:47:59;;;;;;;6.57;2.20;;;15.00;99.90;;;;;;4959894;29;20525;-78
2021/07/07 03:50:25;;;;;;;2.90;2.17;;;15.90;99.90;;;;;;4959565;29;20039;-77
2021/07/07 03:52:52;;;;;;;6.38;2.05;;;15.00;99.90;;;;;;4960743;29;20035;-78
2021/07/07 03:55:20;;;;;;;4.32;1.73;;;15.70;99.90;;;;;;4958519;28;20023;-78
2021/07/07 03:57:46;;;;;;;5.28;1.83;;;14.90;99.90;;;;;;4959474;29;20515;-78
2021/07/07 04:00:17;;;;;;;4.72;2.15;;;15.00;99.90;;;;;;4991855;28;20035;-78
2021/07/07 04:02:43;;;;;;;12.38;2.45;;;14.90;99.90;;;;;;4960746;28;20038;-78
2021/07/07 04:05:10;;;;;;;9.38;2.30;;;15.30;99.90;;;;;;4991054;28;20389;-77
2021/07/07 04:07:36;;;;;;;4.10;2.03;;;14.90;99.90;;;;;;4961014;28;20456;-77
2021/07/07 04:10:04;;;;;;;3.50;1.92;;;15.00;99.90;;;;;;4960137;28;20090;-78
2021/07/07 04:12:30;;;;;;;6.75;1.95;;;14.90;99.90;;;;;;4963130;28;20484;-78
2021/07/07 04:14:55;;;;;;;8.75;2.65;;;15.60;99.90;;;;;;4979691;28;20042;-78
2021/07/07 04:17:21;;;;;;;6.65;2.47;;;16.40;99.90;;;;;;4979581;28;20487;-79
2021/07/07 04:19:47;;;;;;;3.75;2.00;;;15.70;99.90;;;;;;4965024;28;20516;-78
2021/07/07 04:22:12;;;;;;;3.35;2.17;;;15.80;99.90;;;;;;4996598;28;20032;-78
2021/07/07 04:24:38;;;;;;;5.20;2.33;;;15.40;99.90;;;;;;4993272;28;20050;-77
2021/07/07 04:27:04;;;;;;;3.40;1.90;;;15.10;99.90;;;;;;4961545;29;20030;-79
2021/07/07 04:29:31;;;;;;;2.90;1.98;;;15.00;99.90;;;;;;4995808;28;20059;-77
2021/07/07 04:31:56;;;;;;;4.68;1.80;;;14.90;99.90;;;;;;4992110;28;20055;-79
2021/07/07 04:34:26;;;;;;;5.63;2.20;;;15.30;99.90;;;;;;4978537;28;20042;-78
2021/07/07 04:36:52;;;;;;;2.83;2.00;;;15.00;99.90;;;;;;4965514;29;20110;-79
2021/07/07 04:39:18;;;;;;;4.40;1.90;;;15.40;99.90;;;;;;4956408;29;20054;-77
2021/07/07 04:41:44;;;;;;;8.77;1.67;;;15.50;99.90;;;;;;4953669;29;20023;-77
2021/07/07 04:44:09;;;;;;;4.90;1.65;;;15.40;99.90;;;;;;4987122;28;20038;-78
2021/07/07 04:46:35;;;;;;;5.07;1.45;;;15.40;99.90;;;;;;4952555;28;20911;-80
2021/07/07 04:49:01;;;;;;;5.53;1.60;;;15.20;99.90;;;;;;4953840;29;20053;-79
2021/07/07 04:51:26;;;;;;;4.43;1.90;;;15.50;99.90;;;;;;4955431;29;20039;-79
2021/07/07 04:53:52;;;;;;;2.95;1.20;;;15.60;99.90;;;;;;4951525;28;20023;-79
2021/07/07 04:56:18;;;;;;;3.78;1.33;;;16.70;99.90;;;;;;4959526;29;20052;-79
2021/07/07 04:58:44;;;;;;;9.15;1.67;;;15.50;99.90;;;;;;4962015;29;20035;-79
2021/07/07 05:01:09;;;;;;;2.58;1.20;;;15.70;99.90;;;;;;4961810;29;20023;-79
2021/07/07 05:03:36;;;;;;;8.50;1.85;;;15.70;99.90;;;;;;4960992;28;20032;-78
2021/07/07 05:06:02;;;;;;;4.97;1.50;;;15.90;99.90;;;;;;4959522;29;20674;-80
2021/07/07 05:08:28;;;;;;;2.35;1.10;;;16.00;99.90;;;;;;4950448;29;20031;-81
2021/07/07 05:10:54;;;;;;;7.95;2.05;;;16.50;99.90;;;;;;4982171;28;20035;-80
2021/07/07 05:13:21;;;;;;;1.95;1.20;;;17.20;99.90;;;;;;4950916;28;20038;-79
2021/07/07 05:15:47;;;;;;;1.75;1.00;;;16.00;99.90;;;;;;4950968;28;20106;-81
2021/07/07 05:18:14;;;;;;;3.50;1.35;;;16.10;99.90;;;;;;4950387;28;20035;-82
2021/07/07 05:20:40;;;;;;;2.92;1.45;;;16.20;99.90;;;;;;4966245;28;20031;-78
2021/07/07 05:23:06;;;;;;;2.15;1.08;;;15.90;99.90;;;;;;4951266;29;20023;-79
2021/07/07 05:25:33;;;;;;;8.50;2.42;;;16.20;99.90;;;;;;4952067;28;20042;-82
2021/07/07 05:28:01;;;;;;;6.95;1.52;;;16.00;99.90;;;;;;4951993;29;20024;-80
2021/07/07 05:30:26;;;;;;;8.68;1.42;;;15.70;99.90;;;;;;4950327;29;20051;-79
2021/07/07 05:32:52;;;;;;;4.18;1.60;;;16.60;99.90;;;;;;4949389;29;20121;-81
2021/07/07 05:35:18;;;;;;;5.18;2.67;;;17.10;99.90;;;;;;4949228;28;20935;-80
2021/07/07 05:37:45;;;;;;;3.55;1.50;;;16.90;99.90;;;;;;4950246;29;20039;-80
2021/07/07 05:40:12;;;;;;;2.45;1.55;;;16.40;99.90;;;;;;4950348;29;20057;-80
2021/07/07 05:42:37;;;;;;;9.32;1.85;;;15.50;99.90;;;;;;4949802;29;20099;-79
2021/07/07 05:45:04;;;;;;;4.78;1.45;;;17.00;99.90;;;;;;4950743;28;20119;-80
2021/07/07 05:47:29;;;;;;;3.42;1.60;;;15.80;99.90;;;;;;4951021;29;20575;-80
2021/07/07 05:49:57;;;;;;;6.22;1.58;;;16.10;99.90;;;;;;4953505;29;20031;-80
2021/07/07 05:52:24;;;;;;;3.60;1.45;;;16.20;99.90;;;;;;4937521;29;20124;-81
2021/07/07 05:54:51;;;;;;;2.67;1.75;;;17.00;99.90;;;;;;4953839;28;20085;-79
2021/07/07 05:57:17;;;;;;;15.85;2.60;;;16.50;99.90;;;;;;4954224;29;20504;-80
2021/07/07 05:59:43;;;;;;;5.38;2.70;;;15.90;99.90;;;;;;4952572;29;20102;-80
2021/07/07 06:02:09;;;;;;;5.55;1.83;;;16.20;99.90;;;;;;4949634;28;20778;-78
2021/07/07 06:04:35;;;;;;;5.10;1.40;;;16.10;99.90;;;;;;4953671;28;20122;-79
2021/07/07 06:07:00;;;;;;;4.78;1.58;;;16.80;99.90;;;;;;4953856;28;20119;-79
2021/07/07 06:09:26;;;;;;;4.28;1.85;;;17.20;99.90;;;;;;4953257;28;20035;-78
2021/07/07 06:11:52;;;;;;;4.57;1.38;;;17.20;99.90;;;;;;4951424;28;20444;-78
2021/07/07 06:14:18;;;;;;;6.30;1.52;;;16.70;99.90;;;;;;4952863;28;20028;-78
2021/07/07 06:16:44;;;;;;;3.28;1.50;;;16.40;99.90;;;;;;4952802;29;20110;-78
2021/07/07 06:19:09;;;;;;;7.20;1.80;;;16.80;99.90;;;;;;4952231;29;20066;-78
2021/07/07 06:21:35;;;;;;;2.70;1.88;;;16.80;99.90;;;;;;4953899;29;20101;-80
2021/07/07 06:24:01;;;;;;;3.83;1.30;;;18.20;99.90;;;;;;4954150;28;20032;-81
2021/07/07 06:26:28;;;;;;;4.40;1.30;;;17.20;99.90;;;;;;4984469;28;20036;-82
2021/07/07 06:28:55;;;;;;;7.43;1.35;;;16.40;99.90;;;;;;4964814;28;20026;-78
2021/07/07 06:31:22;;;;;;;5.53;1.20;;;18.20;99.90;;;;;;4969783;28;20493;-78
2021/07/07 06:33:48;;;;;;;4.30;1.40;;;18.20;99.90;;;;;;4952823;28;20389;-77
2021/07/07 06:36:14;;;;;;;2.15;1.25;;;17.80;99.90;;;;;;4966812;28;20034;-77
2021/07/07 06:38:40;;;;;;;3.45;1.17;;;17.80;99.90;;;;;;4952703;29;20035;-79
2021/07/07 06:41:05;;;;;;;3.40;1.58;;;17.80;99.90;;;;;;4951285;29;20098;-78
2021/07/07 06:43:31;;;;;;;7.10;1.33;;;17.80;99.90;;;;;;4965623;23;20054;-74
2021/07/07 06:45:57;;;;;;;3.33;1.52;;;18.00;99.90;;;;;;4952870;28;20472;-75
2021/07/07 06:48:22;;;;;;;6.22;1.50;;;17.80;99.90;;;;;;4955932;29;20082;-76
2021/07/07 06:50:48;;;;;;;2.95;1.27;;;17.80;99.90;;;;;;4956914;29;20039;-76
2021/07/07 06:53:15;;;;;;;1.58;0.93;;;18.10;99.90;;;;;;4958216;29;20027;-77
2021/07/07 06:55:40;;;;;;;3.85;1.40;;;18.00;99.90;;;;;;4975920;29;20023;-77
2021/07/07 06:58:12;;;;;;;6.57;1.25;;;19.10;99.90;;;;;;4976559;29;20047;-77
2021/07/07 07:00:39;;;;;;;2.60;1.27;;;18.30;99.90;;;;;;4973731;29;20035;-78
2021/07/07 07:03:05;;;;;;;2.40;1.60;;;18.30;99.90;;;;;;4961817;28;20031;-77
2021/07/07 07:05:30;;;;;;;4.78;1.25;;;18.60;99.90;;;;;;4959394;29;20066;-77
2021/07/07 07:07:56;;;;;;;3.42;1.55;;;18.40;99.90;;;;;;4956775;29;20035;-76
2021/07/07 07:10:21;;;;;;;6.25;1.65;;;18.90;99.90;;;;;;4956226;29;20031;-76
2021/07/07 07:12:47;;;;;;;3.70;1.60;;;18.20;99.90;;;;;;4956162;29;20081;-76
2021/07/07 07:15:15;;;;;;;3.30;1.88;;;18.20;99.90;;;;;;4957016;29;20024;-76
2021/07/07 07:17:41;;;;;;;1.67;1.05;;;18.20;99.90;;;;;;4956457;29;20096;-77
2021/07/07 07:20:09;;;;;;;2.72;1.50;;;18.30;99.90;;;;;;4956259;29;20174;-76
2021/07/07 07:22:36;;;;;;;6.55;1.40;;;18.30;99.90;;;;;;4956393;29;20027;-76
2021/07/07 07:25:02;;;;;;;3.65;1.55;;;18.30;99.90;;;;;;4956506;29;20036;-77
2021/07/07 07:27:27;;;;;;;3.25;1.58;;;18.20;99.90;;;;;;4956479;29;20040;-76
2021/07/07 07:29:53;;;;;;;2.50;1.33;;;18.80;99.90;;;;;;4955911;29;20036;-76
2021/07/07 07:32:19;;;;;;;2.92;1.38;;;18.30;99.90;;;;;;4965197;28;20039;-76
2021/07/07 07:34:44;;;;;;;6.13;1.77;;;18.30;99.90;;;;;;4959393;28;20488;-76
2021/07/07 07:37:13;;;;;;;4.53;1.27;;;18.30;99.90;;;;;;4937126;29;20036;-76
2021/07/07 07:39:51;;;;;;;7.32;1.45;;;18.30;99.90;;;;;;4946373;29;20550;-76
2021/07/07 07:42:19;;;;;;;2.25;0.88;;;18.70;99.90;;;;;;4940872;29;20481;-76
2021/07/07 07:44:45;;;;;;;3.67;1.08;;;18.70;99.90;;;;;;4955920;28;20488;-76
2021/07/07 07:47:11;;;;;;;2.22;1.00;;;19.40;99.90;;;;;;4956017;29;20043;-75
2021/07/07 07:49:37;;;;;;;2.75;0.95;;;19.80;99.90;;;;;;4955707;29;20455;-75
2021/07/07 07:52:04;;;;;;;4.30;1.20;;;19.70;99.90;;;;;;4955351;29;20031;-75
2021/07/07 07:54:31;;;;;;;3.60;1.17;;;19.60;99.90;;;;;;4955994;29;20519;-76
2021/07/07 07:56:57;;;;;;;4.60;1.00;;;20.30;99.90;;;;;;4955796;28;20034;-75
2021/07/07 07:59:23;;;;;;;7.40;1.17;;;20.20;99.90;;;;;;4954096;29;20027;-76
2021/07/07 08:01:48;;;;;;;2.70;0.90;;;20.40;99.90;;;;;;4961238;28;20027;-75
2021/07/07 08:04:15;;;;;;;1.73;0.85;;;20.70;99.90;;;;;;4938571;28;20072;-75
2021/07/07 08:06:41;;;;;;;4.88;0.80;;;20.80;99.90;;;;;;4937057;29;20024;-76
2021/07/07 08:09:06;;;;;;;1.60;0.73;;;20.60;99.90;;;;;;4936518;29;20027;-76
2021/07/07 08:11:32;;;;;;;5.00;0.90;;;20.50;99.90;;;;;;4935307;29;20028;-76
2021/07/07 08:13:58;;;;;;;6.60;0.98;;;20.40;99.90;;;;;;4937007;29;20046;-76
2021/07/07 08:16:23;;;;;;;1.85;0.73;;;20.30;99.90;;;;;;4936701;29;20555;-76
2021/07/07 08:18:49;;;;;;;3.50;0.98;;;20.40;99.90;;;;;;4936075;29;20039;-76
2021/07/07 08:21:17;;;;;;;2.05;0.65;;;20.60;99.90;;;;;;4936438;29;20157;-76
2021/07/07 08:23:43;;;;;;;2.53;0.77;;;;;;;;;;4936798;29;20030;-76
2021/07/07 08:26:09;;;;;;;2.80;0.68;;;22.50;99.90;;;;;;4936967;29;20032;-76
2021/07/07 08:28:35;;;;;;;2.40;0.65;;;;;;;;;;4936946;29;20110;-76
2021/07/07 08:31:01;;;;;;;2.30;0.55;;;;;;;;;;4944033;29;20484;-77
2021/07/07 08:33:27;;;;;;;3.70;0.60;;;;;;;;;;4980372;28;20030;-76
2021/07/07 08:35:53;;;;;;;3.95;0.90;;;;;;;;;;4984406;28;20031;-76
2021/07/07 08:38:19;;;;;;;1.05;0.63;;;;;;;;;;4966883;28;20038;-76
2021/07/07 08:40:45;;;;;;;2.88;0.70;;;;;;;;;;4983519;28;20446;-76
2021/07/07 08:43:11;;;;;;;3.33;0.60;;;;;;;;;;4982272;28;20066;-76
2021/07/07 08:45:37;;;;;;;3.80;0.70;;;;;;;;;;4981269;28;20034;-76
2021/07/07 08:48:03;;;;;;;1.67;0.65;;;;;;;;;;4966496;28;20031;-76
2021/07/07 08:50:30;;;;;;;3.28;0.77;;;;;;;;;;4983650;28;20031;-75
2021/07/07 08:52:59;;;;;;;1.42;0.70;;;;;;;;;;4968962;29;20051;-76
2021/07/07 08:55:25;;;;;;;1.67;0.57;;;;;;;;;;4968458;29;20074;-76
2021/07/07 08:57:51;;;;;;;2.45;0.70;;;;;;;;;;4968444;29;20078;-75
2021/07/07 09:00:20;;;;;;;2.38;0.80;;;;;;;;;;4950576;29;20067;-76
2021/07/07 09:02:47;;;;;;;5.75;0.90;;;;;;;;;;4977157;28;20057;-76
2021/07/07 09:05:13;;;;;;;1.30;0.80;;;;;;;;;;4941869;28;20051;-76
2021/07/07 09:07:40;;;;;;;3.13;0.90;;;;;;;;;;4935541;29;20027;-76
2021/07/07 09:10:06;;;;;;;1.83;0.73;;;;;;;;;;4948881;28;20032;-76
2021/07/07 09:12:35;;;;;;;3.53;1.05;;;;;;;;;;4953563;29;20058;-77
2021/07/07 09:15:01;;;;;;;4.57;1.00;;;;;;;;;;4954232;29;20184;-76
2021/07/07 09:17:27;;;;;;;3.45;0.70;;;;;;;;;;4954831;29;20152;-76
2021/07/07 09:19:53;;;;;;;1.88;0.57;;;;;;;;;;4938064;29;20584;-76
2021/07/07 09:22:24;;;;;;;2.85;0.60;;;21.20;99.90;;;;;;4935569;29;20133;-76
2021/07/07 09:25:00;;;;;;;3.95;0.90;;;23.00;99.90;;;;;;4935928;29;20026;-76
2021/07/07 09:27:36;;;;;;;1.88;0.77;;;22.60;99.90;;;;;;4935869;29;20024;-77
2021/07/07 09:30:10;;;;;;;7.40;0.80;;;22.40;99.90;;;;;;4951640;29;20042;-76
2021/07/07 09:32:48;;;;;;;3.65;0.70;;;22.40;99.90;;;;;;4965941;28;20035;-76
2021/07/07 09:35:17;;;;;;;4.70;0.80;;;22.40;99.90;;;;;;4936460;28;20054;-75
2021/07/07 09:37:52;;;;;;;2.17;0.55;;;22.60;99.90;;;;;;4935786;29;20102;-77
2021/07/07 09:40:18;;;;;;;2.95;1.23;;;22.70;99.90;;;;;;4954660;29;20733;-77
2021/07/07 09:42:45;;;;;;;5.55;0.70;;;23.20;99.90;;;;;;4942276;28;20035;-76
2021/07/07 09:45:15;;;;;;;3.53;0.60;;;23.60;99.90;;;;;;4938391;29;20027;-77
2021/07/07 09:47:41;;;;;;;2.58;0.70;;;23.90;99.90;;;;;;4939606;29;20027;-76
2021/07/07 09:50:08;;;;;;;4.72;0.65;;;24.20;99.90;;;;;;4952814;29;20027;-76
2021/07/07 09:52:34;;;;;;;2.80;0.60;;;24.10;99.90;;;;;;4960929;29;20031;-77
2021/07/07 09:55:02;;;;;;;4.50;0.68;;;;;;;;;;4939132;29;20032;-76
2021/07/07 09:57:28;;;;;;;2.33;0.70;;;;;;;;;;4936232;29;20116;-76
2021/07/07 09:59:54;;;;;;;2.65;0.68;;;;;;;;;;4952378;29;20019;-76
2021/07/07 10:02:20;;;;;;;4.70;0.70;;;;;;;;;;4964564;28;20042;-77
2021/07/07 10:04:46;;;;;;;3.70;0.70;;;;;;;;;;4957577;28;20027;-77
2021/07/07 10:07:13;;;;;;;3.80;1.20;;;;;;;;;;4954263;29;20518;-76
2021/07/07 10:09:45;;;;;;;4.55;0.85;;;;;;;;;;4946965;29;20032;-76
2021/07/07 10:12:11;;;;;;;3.40;0.98;;;;;;;;;;4953013;29;20484;-77
2021/07/07 10:14:37;;;;;;;2.58;0.80;;;;;;;;;;4933722;29;20111;-77
2021/07/07 10:17:03;;;;;;;1.92;0.52;;;;;;;;;;4935246;29;20042;-77
2021/07/07 10:19:30;;;;;;;1.90;0.73;;;;;;;;;;4946933;29;20109;-77
2021/07/07 10:21:56;;;;;;;1.80;0.65;;;;;;;;;;4939396;29;20035;-76
2021/07/07 10:24:24;;;;;;;3.22;0.60;;;;;;;;;;4946735;29;20024;-77
2021/07/07 10:26:52;;;;;;;4.97;1.65;;;24.10;99.90;;;;;;4939984;29;20036;-77
2021/07/07 10:29:19;;;;;;;4.93;0.70;;;;;;;;;;4950255;29;20031;-76
2021/07/07 10:31:49;;;;;;;3.95;0.65;;;;;;;;;;4946546;28;20031;-77
2021/07/07 10:34:15;;;;;;;1.40;0.60;;;;;;;;;;4956336;28;20023;-77
2021/07/07 10:36:41;;;;;;;4.78;1.00;;;27.70;99.90;;;;;;4923580;29;20493;-77
2021/07/07 10:39:10;;;;;;;1.90;0.60;;;29.60;91.30;;;;;;4949474;29;20031;-77
2021/07/07 10:41:42;;;;;;;3.30;0.77;;;29.40;90.40;;;;;;4959553;29;20054;-77
2021/07/07 10:44:28;;;;;;;6.03;0.90;;;29.80;89.50;;;;;;4949514;29;20059;-77
2021/07/07 10:46:54;;;;;;;5.13;0.65;;;29.70;84.50;;;;;;4940031;29;20027;-76
2021/07/07 10:49:25;;;;;;;3.33;0.63;;;29.40;86.90;;;;;;4954218;29;20404;-77
2021/07/07 10:51:54;;;;;;;5.85;0.93;;;29.40;84.60;;;;;;4964322;29;20039;-76
2021/07/07 10:54:20;;;;;;;4.10;0.90;;;28.90;87.70;;;;;;4949949;29;20034;-77
2021/07/07 10:56:48;;;;;;;6.60;0.73;;;29.00;88.00;;;;;;4941194;29;20673;-77
2021/07/07 10:59:39;;;;;;;2.38;0.50;;;29.10;87.50;;;;;;4933713;29;20051;-76
2021/07/07 11:02:16;;;;;;;2.30;0.77;;;28.10;85.50;;;;;;4964273;28;20019;-76
2021/07/07 11:04:46;;;;;;;7.68;0.90;;;27.90;88.00;;;;;;4946980;28;20051;-76
2021/07/07 11:07:31;;;;;;;2.85;0.82;;;27.60;89.00;;;;;;4937726;29;20040;-76
2021/07/07 11:10:15;;;;;;;3.50;0.65;;;28.10;88.50;;;;;;4952698;29;20035;-77
2021/07/07 11:12:41;;;;;;;3.95;0.80;;;28.10;88.90;;;;;;4955350;29;20031;-76
2021/07/07 11:15:09;;;;;;;4.00;0.88;;;28.40;87.30;;;;;;4938843;29;20067;-77
2021/07/07 11:17:38;;;;;;;3.83;0.82;;;29.20;86.90;;;;;;4937154;29;20062;-76
2021/07/07 11:20:08;;;;;;;4.55;0.73;;;29.30;83.70;;;;;;4953588;29;20027;-76
2021/07/07 11:22:34;;;;;;;3.70;0.73;;;29.60;85.00;;;;;;4956525;29;20031;-76
2021/07/07 11:25:04;;;;;;;7.10;0.80;;;30.00;82.10;;;;;;4939788;29;20032;-76
2021/07/07 11:27:33;;;;;;;5.60;0.93;;;30.40;78.50;;;;;;4937144;29;20032;-76
2021/07/07 11:30:00;;;;;;;2.22;0.80;;;31.00;82.50;;;;;;4952669;29;20447;-77
2021/07/07 11:32:31;;;;;;;5.05;0.77;;;31.40;77.20;;;;;;4965018;28;20157;-76
2021/07/07 11:34:59;;;;;;;2.88;0.80;;;31.30;75.20;;;;;;4925723;29;20032;-76
2021/07/07 11:37:28;;;;;;;5.18;1.00;;;31.20;72.80;;;;;;4937119;29;20647;-76
2021/07/07 11:40:09;;;;;;;4.60;0.60;;;31.20;77.30;;;;;;4951451;29;20138;-77
2021/07/07 11:42:55;;;;;;;3.42;0.95;;;31.50;72.00;;;;;;4955997;29;20653;-76
2021/07/07 11:45:25;;;;;;;4.72;0.75;;;31.90;72.80;;;;;;4936839;29;20035;-76
2021/07/07 11:47:53;;;;;;;3.72;0.93;;;32.20;70.10;;;;;;4936655;29;20024;-76
2021/07/07 11:50:19;;;;;;;9.30;1.13;;;32.30;69.60;;;;;;4955032;29;20444;-77
2021/07/07 11:52:59;;;;;;;2.70;1.00;;;32.30;71.80;;;;;;4956022;29;20039;-77
2021/07/07 11:55:51;;;;;;;4.85;0.85;;;32.30;69.70;;;;;;4936855;29;20114;-77
2021/07/07 11:58:32;;;;;;;4.00;0.75;;;32.40;67.50;;;;;;4938246;29;20504;-77
2021/07/07 12:01:07;;;;;;;4.00;0.90;;;32.40;71.80;;;;;;4955184;29;20121;-77
2021/07/07 12:03:33;;;;;;;3.70;1.00;;;32.70;67.90;;;;;;4966482;28;20043;-78
2021/07/07 12:06:01;;;;;;;9.50;1.35;;;32.90;67.80;;;;;;4939081;29;20032;-78
2021/07/07 12:08:45;;;;;;;5.88;0.90;;;32.40;69.90;;;;;;4943034;29;20103;-77
2021/07/07 12:11:15;;;;;;;3.17;1.00;;;32.00;67.20;;;;;;4956114;29;20019;-78
2021/07/07 12:13:48;;;;;;;6.47;1.00;;;31.60;70.50;;;;;;4951761;29;20404;-78
2021/07/07 12:16:19;;;;;;;4.15;1.45;;;31.30;68.00;;;;;;4939103;29;20064;-78
2021/07/07 12:18:50;;;;;;;5.03;0.90;;;31.00;71.20;;;;;;4945016;29;20087;-77
2021/07/07 12:21:22;;;;;;;3.03;0.90;;;31.40;74.20;;;;;;4961422;29;20035;-78
2021/07/07 12:23:53;;;;;;;7.82;0.93;;;32.00;68.90;;;;;;4953931;29;20046;-78
2021/07/07 12:26:23;;;;;;;3.13;0.85;;;32.60;66.50;;;;;;4938794;29;20497;-78
2021/07/07 12:28:49;;;;;;;4.20;0.85;;;33.00;63.80;;;;;;4944285;29;20042;-78
2021/07/07 12:31:15;;;;;;;1.85;0.70;;;32.90;65.90;;;;;;4958380;28;20047;-78
2021/07/07 12:33:45;;;;;;;5.20;1.05;;;;;;;;;;4964023;28;20087;-78
2021/07/07 12:36:14;;;;;;;4.50;0.77;;;;;;;;;;4921190;29;20083;-78
2021/07/07 12:38:47;;;;;;;3.63;0.80;;;;;;;;;;4943871;29;20029;-78
2021/07/07 12:41:13;;;;;;;2.40;0.80;;;;;;;;;;4957127;29;20063;-78
2021/07/07 12:43:56;;;;;;;3.75;0.88;;;;;;;;;;4950619;28;20059;-77
2021/07/07 12:46:22;;;;;;;4.93;1.00;;;;;;;;;;4986500;23;20038;-82
2021/07/07 12:48:50;;;;;;;2.88;0.75;;;;;;;;;;4980648;28;20027;-82
2021/07/07 12:51:20;;;;;;;5.28;0.80;;;;;;;;;;4996954;28;20030;-82
2021/07/07 12:53:46;;;;;;;4.63;1.20;;;;;;;;;;4998085;28;20101;-81
2021/07/07 12:56:12;;;;;;;4.75;1.40;;;;;;;;;;4979813;28;20034;-81
2021/07/07 12:58:39;;;;;;;5.03;0.98;;;;;;;;;;4979465;28;20033;-82
2021/07/07 13:01:18;;;;;;;5.82;1.30;;;;;;;;;;4996605;28;20368;-82
2021/07/07 13:03:44;;;;;;;3.22;0.90;;;;;;;;;;4982783;28;20022;-81
2021/07/07 13:06:19;;;;;;;3.38;0.80;;;;;;;;;;4994911;28;20034;-78
2021/07/07 13:08:46;;;;;;;4.32;0.93;;;;;;;;;;4977530;28;20026;-83
2021/07/07 13:11:22;;;;;;;5.88;1.02;;;33.50;63.70;;;;;;4994842;28;20550;-79
2021/07/07 13:13:49;;;;;;;2.47;0.57;;;36.40;61.20;;;;;;4980691;28;20026;-80
2021/07/07 13:16:27;;;;;;;3.55;1.02;;;37.00;60.30;;;;;;4992049;28;20041;-81
2021/07/07 13:19:05;;;;;;;4.28;1.25;;;37.00;55.40;;;;;;4976328;28;20057;-80
2021/07/07 13:21:52;;;;;;;5.22;0.95;;;36.20;57.60;;;;;;4977280;28;20030;-81
2021/07/07 13:24:21;;;;;;;3.97;0.98;;;37.70;56.30;;;;;;4976395;28;20109;-82
2021/07/07 13:26:49;;;;;;;4.00;1.40;;;38.20;52.60;;;;;;4977711;28;20600;-79
2021/07/07 13:29:22;;;;;;;3.28;1.00;;;37.30;52.50;;;;;;4977965;28;20027;-82
2021/07/07 13:32:19;;;;;;;6.28;1.13;;;36.50;55.10;;;;;;4970373;28;20645;-80
2021/07/07 13:34:48;;;;;;;2.85;1.00;;;35.70;56.40;;;;;;4971216;28;20178;-82
2021/07/07 13:37:21;;;;;;;8.80;0.90;;;36.70;53.60;;;;;;4960307;28;20026;-78
2021/07/07 13:39:51;;;;;;;3.72;1.20;;;37.30;54.30;;;;;;4971131;28;20031;-85
2021/07/07 13:42:18;;;;;;;3.08;1.00;;;37.80;50.70;;;;;;4979552;28;20394;-80
2021/07/07 13:44:44;;;;;;;5.75;0.80;;;38.40;51.20;;;;;;4975384;28;20026;-81
2021/07/07 13:47:11;;;;;;;3.10;1.13;;;39.00;49.90;;;;;;4970331;28;20035;-80
2021/07/07 13:49:37;;;;;;;7.70;0.98;;;38.60;49.10;;;;;;4969565;28;20034;-76
2021/07/07 13:52:04;;;;;;;3.90;1.20;;;38.60;50.80;;;;;;4953176;28;20039;-79
2021/07/07 13:54:30;;;;;;;2.92;0.85;;;39.20;50.20;;;;;;4971528;28;20056;-81
2021/07/07 13:56:55;;;;;;;3.08;1.00;;;39.90;49.40;;;;;;4973759;28;20488;-77
2021/07/07 13:59:21;;;;;;;5.78;0.98;;;40.40;47.90;;;;;;4984805;28;20693;-78
2021/07/07 14:01:47;;;;;;;5.88;1.02;;;40.70;47.80;;;;;;4961277;28;20034;-79
2021/07/07 14:04:12;;;;;;;4.53;1.20;;;41.00;48.90;;;;;;4983906;28;20058;-79
2021/07/07 14:06:38;;;;;;;6.28;1.10;;;41.30;47.10;;;;;;4992380;28;20034;-79
2021/07/07 14:09:05;;;;;;;4.95;1.10;;;41.00;45.20;;;;;;4975246;28;20033;-78
2021/07/07 14:11:32;;;;;;;5.63;0.70;;;40.50;45.90;;;;;;4976121;28;20412;-80
2021/07/07 14:13:58;;;;;;;3.72;0.70;;;40.30;46.90;;;;;;4986842;28;20033;-80
2021/07/07 14:16:24;;;;;;;5.35;0.80;;;40.40;45.70;;;;;;4979579;28;20117;-80
2021/07/07 14:18:49;;;;;;;2.20;0.80;;;41.00;45.60;;;;;;4978943;28;20402;-79
2021/07/07 14:21:15;;;;;;;4.47;1.50;;;40.30;45.30;;;;;;4978344;28;20041;-79
2021/07/07 14:23:41;;;;;;;4.47;1.00;;;40.10;46.10;;;;;;4990542;28;20049;-80
2021/07/07 14:26:07;;;;;;;4.00;0.77;;;40.40;45.50;;;;;;4976263;28;20480;-79
2021/07/07 14:28:33;;;;;;;4.60;0.85;;;40.80;44.70;;;;;;4976410;28;20034;-78
2021/07/07 14:30:58;;;;;;;2.40;0.75;;;41.50;44.50;;;;;;4988209;28;20034;-80
2021/07/07 14:33:24;;;;;;;2.78;0.80;;;41.30;44.00;;;;;;4959393;28;20037;-79
2021/07/07 14:35:50;;;;;;;3.60;0.80;;;41.50;43.80;;;;;;4972669;28;20066;-80
2021/07/07 14:38:16;;;;;;;3.40;0.90;;;41.10;44.20;;;;;;4991351;28;20058;-79
2021/07/07 14:40:42;;;;;;;2.22;0.77;;;41.10;44.70;;;;;;4990915;28;20034;-79
2021/07/07 14:43:07;;;;;;;2.90;0.70;;;41.80;43.70;;;;;;4989372;28;20033;-81
2021/07/07 14:45:33;;;;;;;3.08;1.15;;;42.10;44.20;;;;;;4972982;28;20090;-78
2021/07/07 14:47:59;;;;;;;3.78;0.80;;;41.60;42.40;;;;;;4973076;28;20023;-79
2021/07/07 14:50:25;;;;;;;2.28;0.80;;;39.60;45.20;;;;;;4991701;28;20034;-80
2021/07/07 14:52:52;;;;;;;6.70;1.15;;;39.20;45.60;;;;;;4998385;28;20033;-80